createdAt,value
2018-05-21T00:00:33.449Z,43.67
2018-05-21T00:03:00.971Z,43.85
2018-05-21T00:05:28.547Z,44.44
2018-05-21T00:07:56.226Z,43.92
2018-05-21T00:10:23.736Z,44.31
2018-05-21T00:12:51.269Z,44.27
2018-05-21T00:15:18.810Z,44.84
2018-05-21T00:17:46.320Z,44.53
2018-05-21T00:20:13.862Z,44.73
2018-05-21T00:22:41.387Z,45.20
2018-05-21T00:25:08.929Z,45.62
2018-05-21T00:27:36.814Z,46.16
2018-05-21T00:30:04.329Z,46.40
2018-05-21T00:32:31.858Z,45.96
2018-05-21T00:34:59.530Z,45.96
2018-05-21T00:37:27.051Z,46.32
2018-05-21T00:39:54.562Z,47.27
2018-05-21T00:42:22.110Z,46.76
2018-05-21T00:44:49.671Z,47.20
2018-05-21T00:47:17.627Z,48.30
2018-05-21T00:49:45.141Z,47.32
2018-05-21T00:52:12.649Z,47.06
2018-05-21T00:54:51.602Z,46.85
2018-05-21T00:57:19.124Z,47.07
2018-05-21T00:59:46.702Z,47.35
2018-05-21T01:02:14.410Z,47.03
2018-05-21T01:04:41.921Z,46.99
2018-05-21T01:07:09.450Z,47.79
2018-05-21T01:09:36.981Z,47.77
2018-05-21T01:12:04.496Z,48.34
2018-05-21T01:14:32.042Z,48.78
2018-05-21T01:16:59.565Z,48.01
2018-05-21T01:19:27.339Z,48.16
2018-05-21T01:21:54.854Z,48.11
2018-05-21T01:24:22.374Z,48.69
2018-05-21T01:26:50.351Z,49.13
2018-05-21T01:29:17.861Z,48.79
2018-05-21T01:31:45.378Z,49.16
2018-05-21T01:34:12.949Z,49.34
2018-05-21T01:36:40.461Z,49.06
2018-05-21T01:39:07.982Z,49.75
2018-05-21T01:41:35.534Z,50.12
2018-05-21T01:44:03.042Z,50.31
2018-05-21T01:46:30.582Z,49.73
2018-05-21T01:48:58.121Z,49.93
2018-05-21T01:51:25.634Z,49.94
2018-05-21T01:53:53.153Z,49.78
2018-05-21T01:56:20.689Z,50.00
2018-05-21T01:58:48.226Z,49.75
2018-05-21T02:01:15.760Z,50.05
2018-05-21T02:03:43.294Z,50.31
2018-05-21T02:06:10.811Z,50.47
2018-05-21T02:08:38.423Z,51.38
2018-05-21T02:11:05.925Z,50.80
2018-05-21T02:13:33.483Z,50.89
2018-05-21T02:16:01.046Z,50.80
2018-05-21T02:18:28.579Z,50.79
2018-05-21T02:20:56.141Z,50.50
2018-05-21T02:23:23.703Z,50.97
2018-05-21T02:25:51.258Z,50.97
2018-05-21T02:28:18.830Z,50.68
2018-05-21T02:30:46.433Z,51.03
2018-05-21T02:33:13.967Z,51.09
2018-05-21T02:35:41.510Z,51.52
2018-05-21T02:38:09.041Z,51.37
2018-05-21T02:40:36.591Z,51.00
2018-05-21T02:43:04.312Z,51.12
2018-05-21T02:45:31.839Z,51.22
2018-05-21T02:47:59.363Z,51.99
2018-05-21T02:50:26.921Z,51.64
2018-05-21T02:52:54.525Z,52.19
2018-05-21T02:55:22.113Z,51.56
2018-05-21T02:57:49.664Z,51.64
2018-05-21T03:00:17.183Z,51.28
2018-05-21T03:02:44.900Z,51.20
2018-05-21T03:05:12.420Z,51.80
2018-05-21T03:07:39.960Z,51.20
2018-05-21T03:10:07.507Z,51.08
2018-05-21T03:12:35.028Z,50.87
2018-05-21T03:15:02.572Z,50.94
2018-05-21T03:17:30.100Z,51.25
2018-05-21T03:19:57.813Z,51.18
2018-05-21T03:22:25.348Z,51.06
2018-05-21T03:24:52.879Z,50.77
2018-05-21T03:27:20.464Z,51.00
2018-05-21T03:29:47.983Z,50.92
2018-05-21T03:32:15.507Z,50.99
2018-05-21T03:34:43.067Z,51.00
2018-05-21T03:37:10.590Z,51.11
2018-05-21T03:39:38.162Z,51.36
2018-05-21T03:42:05.689Z,51.10
2018-05-21T03:44:33.209Z,51.11
2018-05-21T03:47:00.768Z,50.91
2018-05-21T03:49:28.292Z,50.81
2018-05-21T03:51:55.839Z,50.63
2018-05-21T03:54:23.371Z,50.77
2018-05-21T03:56:50.923Z,50.50
2018-05-21T03:59:30.269Z,50.28
2018-05-21T04:02:09.699Z,50.25
2018-05-21T04:04:37.304Z,50.17
2018-05-21T04:07:04.828Z,50.03
2018-05-21T04:09:32.367Z,50.07
2018-05-21T04:11:59.926Z,49.86
2018-05-21T04:14:27.462Z,50.30
2018-05-21T04:16:55.917Z,49.69
2018-05-21T04:19:23.442Z,49.41
2018-05-21T04:21:50.963Z,49.41
2018-05-21T04:24:18.515Z,49.36
2018-05-21T04:26:46.038Z,49.33
2018-05-21T04:29:13.715Z,49.06
2018-05-21T04:31:41.239Z,48.82
2018-05-21T04:34:08.746Z,48.80
2018-05-21T04:36:36.294Z,49.11
2018-05-21T04:39:03.836Z,49.20
2018-05-21T04:41:31.408Z,48.91
2018-05-21T04:43:58.926Z,49.08
2018-05-21T04:46:26.451Z,48.94
2018-05-21T04:48:54.003Z,49.02
2018-05-21T04:51:21.527Z,48.55
2018-05-21T04:53:49.076Z,48.24
2018-05-21T04:56:16.631Z,48.11
2018-05-21T04:58:44.160Z,47.99
2018-05-21T05:01:11.739Z,47.03
2018-05-21T05:03:39.262Z,46.08
2018-05-21T05:06:06.794Z,45.08
2018-05-21T05:08:34.803Z,43.17
2018-05-21T05:11:02.328Z,41.71
2018-05-21T05:13:29.869Z,42.33
2018-05-21T05:15:57.423Z,41.69
2018-05-21T05:18:24.943Z,41.70
2018-05-21T05:20:52.822Z,42.19
2018-05-21T05:23:20.347Z,39.97
2018-05-21T05:25:47.878Z,41.55
2018-05-21T05:28:15.433Z,39.89
2018-05-21T05:30:42.964Z,40.15
2018-05-21T05:33:10.515Z,39.43
2018-05-21T05:35:38.050Z,39.87
2018-05-21T05:38:05.594Z,39.26
2018-05-21T05:40:33.149Z,38.57
2018-05-21T05:43:00.677Z,38.19
2018-05-21T05:45:28.331Z,41.11
2018-05-21T05:47:55.856Z,41.24
2018-05-21T05:50:23.389Z,40.44
2018-05-21T05:52:50.934Z,40.52
2018-05-21T05:55:18.678Z,39.52
2018-05-21T05:57:46.202Z,39.20
2018-05-21T06:00:13.723Z,39.99
2018-05-21T06:02:41.267Z,41.02
2018-05-21T06:05:08.792Z,40.68
2018-05-21T06:07:36.456Z,40.56
2018-05-21T06:10:03.987Z,39.73
2018-05-21T06:12:31.512Z,40.07
2018-05-21T06:14:59.077Z,38.85
2018-05-21T06:17:26.606Z,38.96
2018-05-21T06:19:54.156Z,39.26
2018-05-21T06:22:21.723Z,38.92
2018-05-21T06:24:49.656Z,39.50
2018-05-21T06:27:17.186Z,39.79
2018-05-21T06:29:44.724Z,39.88
2018-05-21T06:32:12.280Z,39.40
2018-05-21T06:34:39.837Z,39.35
2018-05-21T06:37:07.402Z,39.12
2018-05-21T06:39:34.926Z,38.71
2018-05-21T06:42:02.447Z,40.56
2018-05-21T06:44:30.031Z,41.45
2018-05-21T06:46:57.556Z,41.04
2018-05-21T06:49:25.118Z,40.24
2018-05-21T06:51:52.675Z,39.63
2018-05-21T06:54:20.219Z,39.80
2018-05-21T06:56:47.742Z,39.16
2018-05-21T06:59:15.282Z,39.91
2018-05-21T07:01:42.824Z,40.02
2018-05-21T07:04:10.342Z,41.36
2018-05-21T07:06:37.920Z,42.26
2018-05-21T07:09:05.473Z,42.37
2018-05-21T07:11:33.019Z,43.39
2018-05-21T07:14:00.548Z,43.21
2018-05-21T07:16:28.113Z,43.28
2018-05-21T07:18:55.639Z,45.03
2018-05-21T07:21:23.176Z,43.45
2018-05-21T07:23:51.116Z,43.39
2018-05-21T07:26:18.703Z,43.56
2018-05-21T07:28:46.236Z,43.68
2018-05-21T07:31:13.787Z,43.23
2018-05-21T07:33:41.310Z,43.27
2018-05-21T07:36:08.886Z,43.05
2018-05-21T07:38:36.418Z,43.03
2018-05-21T07:41:03.949Z,43.32
2018-05-21T07:43:31.524Z,42.73
2018-05-21T07:45:59.042Z,42.63
2018-05-21T07:48:26.749Z,42.78
2018-05-21T07:50:54.284Z,42.63
2018-05-21T07:53:21.815Z,42.54
2018-05-21T07:55:50.013Z,42.08
2018-05-21T07:58:17.541Z,41.78
2018-05-21T08:00:45.069Z,41.55
2018-05-21T08:03:12.620Z,41.45
2018-05-21T08:05:40.170Z,41.63
2018-05-21T08:08:07.746Z,41.11
2018-05-21T08:10:35.592Z,41.08
2018-05-21T08:13:03.116Z,40.96
2018-05-21T08:15:30.862Z,41.49
2018-05-21T08:17:58.381Z,41.08
2018-05-21T08:20:25.901Z,41.25
2018-05-21T08:22:53.483Z,41.31
2018-05-21T08:25:21.050Z,41.50
2018-05-21T08:27:48.577Z,41.22
2018-05-21T08:30:16.136Z,40.93
2018-05-21T08:32:43.688Z,40.35
2018-05-21T08:35:11.244Z,40.59
2018-05-21T08:37:38.775Z,40.70
2018-05-21T08:40:06.347Z,40.83
2018-05-21T08:42:33.866Z,40.62
2018-05-21T08:45:01.426Z,40.62
2018-05-21T08:47:28.978Z,40.68
2018-05-21T08:49:56.515Z,40.35
2018-05-21T08:52:24.108Z,40.48
2018-05-21T08:54:51.616Z,40.54
2018-05-21T08:57:19.195Z,40.55
2018-05-21T08:59:46.708Z,40.41
2018-05-21T09:02:14.237Z,41.12
2018-05-21T09:04:41.919Z,40.34
2018-05-21T09:07:09.400Z,40.21
2018-05-21T09:09:36.923Z,40.05
2018-05-21T09:12:04.530Z,40.13
2018-05-21T09:14:32.048Z,40.38
2018-05-21T09:16:59.572Z,40.09
2018-05-21T09:19:27.129Z,40.27
2018-05-21T09:21:54.655Z,40.92
2018-05-21T09:24:22.195Z,39.81
2018-05-21T09:26:49.711Z,40.04
2018-05-21T09:29:17.233Z,39.74
2018-05-21T09:31:44.781Z,39.35
2018-05-21T09:34:12.310Z,39.46
2018-05-21T09:36:39.875Z,38.68
2018-05-21T09:39:07.412Z,38.58
2018-05-21T09:41:34.934Z,38.27
2018-05-21T09:44:02.498Z,39.03
2018-05-21T09:46:30.028Z,39.70
2018-05-21T09:48:57.556Z,39.07
2018-05-21T09:51:25.113Z,38.90
2018-05-21T09:53:52.634Z,38.42
2018-05-21T09:56:20.346Z,38.93
2018-05-21T09:58:47.870Z,38.84
2018-05-21T10:01:15.393Z,38.49
2018-05-21T10:03:42.931Z,37.40
2018-05-21T10:06:10.466Z,39.15
2018-05-21T10:08:38.011Z,38.62
2018-05-21T10:11:05.572Z,37.78
2018-05-21T10:13:33.105Z,37.31
2018-05-21T10:16:00.653Z,37.93
2018-05-21T10:18:28.213Z,37.47
2018-05-21T10:20:55.732Z,36.66
2018-05-21T10:23:23.279Z,36.50
2018-05-21T10:25:50.861Z,37.04
2018-05-21T10:28:18.393Z,36.13
2018-05-21T10:30:45.924Z,36.70
2018-05-21T10:33:13.477Z,36.76
2018-05-21T10:35:41.000Z,36.37
2018-05-21T10:38:08.547Z,35.61
2018-05-21T10:40:36.127Z,35.45
2018-05-21T10:43:03.829Z,35.76
2018-05-21T10:45:31.360Z,34.55
2018-05-21T10:47:58.906Z,33.81
2018-05-21T10:50:26.461Z,34.60
2018-05-21T10:52:54.004Z,35.39
2018-05-21T10:55:21.971Z,35.95
2018-05-21T10:57:49.499Z,35.59
2018-05-21T11:00:17.019Z,36.05
2018-05-21T11:02:44.558Z,35.57
2018-05-21T11:05:12.107Z,35.80
2018-05-21T11:07:39.627Z,35.19
2018-05-21T11:10:07.176Z,35.44
2018-05-21T11:12:34.699Z,33.57
2018-05-21T11:15:02.247Z,33.88
2018-05-21T11:17:29.798Z,34.28
2018-05-21T11:19:57.304Z,34.16
2018-05-21T11:22:25.007Z,33.80
2018-05-21T11:24:52.522Z,33.39
2018-05-21T11:27:20.035Z,33.40
2018-05-21T11:29:47.728Z,33.79
2018-05-21T11:32:15.239Z,34.47
2018-05-21T11:34:42.755Z,33.97
2018-05-21T11:37:10.295Z,32.74
2018-05-21T11:39:38.014Z,33.07
2018-05-21T11:42:05.615Z,33.38
2018-05-21T11:44:33.139Z,33.87
2018-05-21T11:47:00.685Z,33.55
2018-05-21T11:49:28.617Z,33.94
2018-05-21T11:51:56.144Z,33.50
2018-05-21T11:54:23.666Z,32.53
2018-05-21T11:56:51.214Z,33.08
2018-05-21T11:59:18.743Z,32.94
2018-05-21T12:01:46.327Z,33.25
2018-05-21T12:04:13.846Z,32.96
2018-05-21T12:06:41.372Z,33.32
2018-05-21T12:09:08.916Z,33.39
2018-05-21T12:11:36.434Z,32.62
2018-05-21T12:14:03.989Z,32.62
2018-05-21T12:16:31.520Z,32.34
2018-05-21T12:18:59.140Z,32.61
2018-05-21T12:21:26.665Z,31.95
2018-05-21T12:23:54.208Z,32.38
2018-05-21T12:26:21.756Z,32.80
2018-05-21T12:28:49.288Z,32.60
2018-05-21T12:31:17.064Z,32.37
2018-05-21T12:33:44.585Z,32.58
2018-05-21T12:36:12.112Z,32.14
2018-05-21T12:38:39.765Z,32.41
2018-05-21T12:41:07.283Z,31.53
2018-05-21T12:43:34.803Z,31.77
2018-05-21T12:46:02.389Z,32.45
2018-05-21T12:48:29.915Z,32.46
2018-05-21T12:50:57.443Z,32.66
2018-05-21T12:53:24.992Z,31.54
2018-05-21T12:55:52.532Z,32.38
2018-05-21T12:58:20.072Z,32.73
2018-05-21T13:00:47.716Z,32.51
2018-05-21T13:03:15.244Z,31.74
2018-05-21T13:05:42.759Z,32.63
2018-05-21T13:08:10.305Z,32.28
2018-05-21T13:10:37.823Z,31.81
2018-05-21T13:13:05.398Z,32.45
2018-05-21T13:15:32.992Z,32.22
2018-05-21T13:18:00.508Z,32.49
2018-05-21T13:20:28.083Z,32.63
2018-05-21T13:22:55.610Z,32.90
2018-05-21T13:25:23.132Z,32.98
2018-05-21T13:27:50.672Z,32.49
2018-05-21T13:30:18.189Z,32.88
2018-05-21T13:32:45.733Z,32.45
2018-05-21T13:35:13.255Z,32.71
2018-05-21T13:37:41.227Z,32.23
2018-05-21T13:40:08.788Z,32.38
2018-05-21T13:42:36.319Z,32.15
2018-05-21T13:45:03.898Z,31.91
2018-05-21T13:47:31.411Z,32.41
2018-05-21T13:49:58.927Z,32.96
2018-05-21T13:52:26.964Z,32.87
2018-05-21T13:54:54.441Z,32.66
2018-05-21T13:57:21.997Z,32.98
2018-05-21T13:59:49.555Z,32.86
2018-05-21T14:02:17.066Z,32.93
2018-05-21T14:04:44.947Z,33.02
2018-05-21T14:07:12.595Z,32.61
2018-05-21T14:09:40.120Z,33.23
2018-05-21T14:12:07.663Z,32.69
2018-05-21T14:14:35.200Z,32.71
2018-05-21T14:17:02.742Z,33.63
2018-05-21T14:19:31.063Z,33.59
2018-05-21T14:21:58.793Z,33.83
2018-05-21T14:24:26.318Z,32.29
2018-05-21T14:26:53.850Z,33.26
2018-05-21T14:29:21.396Z,32.63
2018-05-21T14:31:48.914Z,33.54
2018-05-21T14:34:16.458Z,32.82
2018-05-21T14:36:44.327Z,32.57
2018-05-21T14:39:11.861Z,33.36
2018-05-21T14:41:39.375Z,33.09
2018-05-21T14:44:06.923Z,33.50
2018-05-21T14:46:34.451Z,33.47
2018-05-21T14:49:01.997Z,33.33
2018-05-21T14:51:29.529Z,33.38
2018-05-21T14:53:57.074Z,33.77
2018-05-21T14:56:24.587Z,33.02
2018-05-21T14:58:52.147Z,33.24
2018-05-21T15:01:19.680Z,33.21
2018-05-21T15:03:47.222Z,32.25
2018-05-21T15:06:14.739Z,32.38
2018-05-21T15:08:42.510Z,32.21
2018-05-21T15:11:10.023Z,32.80
2018-05-21T15:13:37.542Z,32.54
2018-05-21T15:16:05.366Z,32.03
2018-05-21T15:18:32.847Z,32.41
2018-05-21T15:21:00.381Z,32.46
2018-05-21T15:23:28.119Z,32.02
2018-05-21T15:25:55.631Z,31.81
2018-05-21T15:28:23.188Z,31.94
2018-05-21T15:30:50.732Z,32.83
2018-05-21T15:33:18.282Z,32.06
2018-05-21T15:35:45.807Z,31.75
2018-05-21T15:38:13.347Z,32.06
2018-05-21T15:40:40.872Z,32.41
2018-05-21T15:43:08.412Z,32.22
2018-05-21T15:45:35.941Z,31.90
2018-05-21T15:48:03.959Z,31.95
2018-05-21T15:50:31.479Z,31.86
2018-05-21T15:52:58.994Z,32.34
2018-05-21T15:55:26.674Z,32.04
2018-05-21T15:57:54.202Z,32.22
2018-05-21T16:00:21.737Z,32.87
2018-05-21T16:02:49.433Z,31.72
2018-05-21T16:05:16.964Z,32.35
2018-05-21T16:07:44.743Z,31.82
2018-05-21T16:10:12.263Z,32.39
2018-05-21T16:12:39.785Z,32.27
2018-05-21T16:15:07.337Z,32.31
2018-05-21T16:17:34.868Z,32.81
2018-05-21T16:20:02.870Z,32.19
2018-05-21T16:22:30.409Z,32.18
2018-05-21T16:24:57.922Z,32.18
2018-05-21T16:27:25.467Z,32.86
2018-05-21T16:29:52.982Z,32.63
2018-05-21T16:32:20.566Z,32.10
2018-05-21T16:34:48.099Z,31.75
2018-05-21T16:37:15.658Z,32.09
2018-05-21T16:39:43.244Z,32.24
2018-05-21T16:42:10.768Z,32.53
2018-05-21T16:44:38.296Z,33.02
2018-05-21T16:47:05.855Z,33.64
2018-05-21T16:49:33.375Z,32.96
2018-05-21T16:52:01.477Z,33.06
2018-05-21T16:54:28.927Z,33.31
2018-05-21T16:56:56.460Z,32.72
2018-05-21T16:59:24.204Z,32.81
2018-05-21T17:01:51.738Z,33.01
2018-05-21T17:04:19.263Z,32.73
2018-05-21T17:06:46.805Z,32.78
2018-05-21T17:09:14.460Z,33.03
2018-05-21T17:11:42.022Z,32.92
2018-05-21T17:14:09.539Z,33.39
2018-05-21T17:16:37.210Z,33.14
2018-05-21T17:19:04.807Z,33.85
2018-05-21T17:21:32.323Z,33.02
2018-05-21T17:24:00.266Z,33.15
2018-05-21T17:26:28.723Z,33.10
2018-05-21T17:28:56.251Z,33.19
2018-05-21T17:31:23.791Z,33.78
2018-05-21T17:33:51.340Z,33.30
2018-05-21T17:36:18.860Z,33.22
2018-05-21T17:38:46.412Z,33.41
2018-05-21T17:41:13.939Z,33.24
2018-05-21T17:43:41.530Z,33.52
2018-05-21T17:46:09.060Z,33.84
2018-05-21T17:48:36.570Z,34.28
2018-05-21T17:51:04.267Z,33.88
2018-05-21T17:53:31.800Z,33.82
2018-05-21T17:55:59.314Z,33.88
2018-05-21T17:58:26.875Z,32.71
2018-05-21T18:00:54.565Z,31.78
2018-05-21T18:03:22.088Z,32.85
2018-05-21T18:05:49.624Z,31.21
2018-05-21T18:08:17.188Z,30.98
2018-05-21T18:10:44.713Z,30.72
2018-05-21T18:13:12.239Z,31.51
2018-05-21T18:15:39.788Z,31.63
2018-05-21T18:18:07.331Z,31.66
2018-05-21T18:20:34.891Z,32.10
2018-05-21T18:23:02.411Z,32.32
2018-05-21T18:25:29.979Z,32.61
2018-05-21T18:27:57.507Z,34.14
2018-05-21T18:30:25.042Z,33.26
2018-05-21T18:32:52.604Z,33.03
2018-05-21T18:35:20.123Z,33.72
2018-05-21T18:37:47.695Z,33.37
2018-05-21T18:40:15.209Z,33.36
2018-05-21T18:42:42.829Z,33.83
2018-05-21T18:45:10.432Z,33.69
2018-05-21T18:47:37.950Z,34.11
2018-05-21T18:50:05.478Z,35.31
2018-05-21T18:52:33.024Z,34.69
2018-05-21T18:55:00.567Z,34.71
2018-05-21T18:57:28.087Z,34.47
2018-05-21T18:59:55.631Z,34.28
2018-05-21T19:02:23.154Z,34.29
2018-05-21T19:04:50.712Z,34.50
2018-05-21T19:07:18.259Z,34.44
2018-05-21T19:09:45.884Z,35.03
2018-05-21T19:12:13.471Z,34.84
2018-05-21T19:14:41.152Z,34.91
2018-05-21T19:17:08.676Z,35.38
2018-05-21T19:19:36.190Z,35.86
2018-05-21T19:22:03.751Z,35.60
2018-05-21T19:24:31.289Z,35.39
2018-05-21T19:26:58.833Z,35.53
2018-05-21T19:29:26.385Z,35.90
2018-05-21T19:31:53.916Z,36.09
2018-05-21T19:34:21.629Z,36.42
2018-05-21T19:36:50.226Z,36.34
2018-05-21T19:39:17.743Z,37.02
2018-05-21T19:41:45.277Z,36.53
2018-05-21T19:44:13.089Z,36.69
2018-05-21T19:46:45.430Z,36.92
2018-05-21T19:49:13.115Z,36.84
2018-05-21T19:51:40.699Z,36.63
2018-05-21T19:54:09.218Z,36.55
2018-05-21T19:56:36.919Z,36.79
2018-05-21T19:59:04.575Z,36.58
2018-05-21T20:01:32.579Z,37.09
2018-05-21T20:04:00.099Z,37.15
2018-05-21T20:06:28.535Z,36.63
2018-05-21T20:08:56.077Z,36.56
2018-05-21T20:11:23.615Z,37.38
2018-05-21T20:13:51.172Z,37.10
2018-05-21T20:16:18.699Z,36.62
2018-05-21T20:18:46.297Z,36.93
2018-05-21T20:21:13.821Z,36.98
2018-05-21T20:23:41.416Z,36.87
2018-05-21T20:26:08.980Z,37.16
2018-05-21T20:28:36.953Z,37.17
2018-05-21T20:31:04.512Z,37.11
2018-05-21T20:33:32.035Z,38.01
2018-05-21T20:35:59.582Z,36.87
2018-05-21T20:38:27.115Z,36.83
2018-05-21T20:40:54.658Z,36.56
2018-05-21T20:43:22.213Z,37.11
2018-05-21T20:45:49.743Z,37.01
2018-05-21T20:48:17.323Z,36.92
2018-05-21T20:50:44.852Z,37.23
2018-05-21T20:53:12.408Z,38.90
2018-05-21T20:55:39.997Z,37.79
2018-05-21T20:58:07.520Z,38.19
2018-05-21T21:00:35.038Z,37.78
2018-05-21T21:03:02.585Z,37.99
2018-05-21T21:05:30.152Z,39.25
2018-05-21T21:07:57.700Z,38.06
2018-05-21T21:10:25.391Z,39.01
2018-05-21T21:12:52.921Z,38.71
2018-05-21T21:15:20.448Z,38.02
2018-05-21T21:17:48.003Z,38.25
2018-05-21T21:20:15.566Z,38.15
2018-05-21T21:22:43.155Z,37.86
2018-05-21T21:25:10.688Z,37.85
2018-05-21T21:27:38.222Z,37.79
2018-05-21T21:30:05.785Z,38.82
2018-05-21T21:32:33.413Z,38.69
2018-05-21T21:35:00.898Z,38.57
2018-05-21T21:37:28.432Z,38.64
2018-05-21T21:39:55.990Z,38.93
2018-05-21T21:42:23.514Z,40.03
2018-05-21T21:44:51.057Z,39.30
2018-05-21T21:47:18.603Z,39.80
2018-05-21T21:49:46.367Z,39.58
2018-05-21T21:52:13.899Z,39.53
2018-05-21T21:54:41.417Z,39.45
2018-05-21T21:57:08.958Z,39.55
2018-05-21T21:59:36.512Z,40.48
2018-05-21T22:02:04.163Z,40.16
2018-05-21T22:04:31.690Z,39.57
2018-05-21T22:06:59.218Z,39.79
2018-05-21T22:09:27.251Z,39.88
2018-05-21T22:11:54.839Z,40.09
2018-05-21T22:14:22.354Z,40.58
2018-05-21T22:16:49.975Z,40.64
2018-05-21T22:19:17.494Z,40.29
2018-05-21T22:21:45.093Z,40.31
2018-05-21T22:24:12.651Z,40.49
2018-05-21T22:26:40.184Z,41.41
2018-05-21T22:29:07.764Z,40.76
2018-05-21T22:31:35.287Z,40.66
2018-05-21T22:34:02.810Z,40.55
2018-05-21T22:36:30.365Z,40.95
2018-05-21T22:38:57.947Z,41.27
2018-05-21T22:41:25.487Z,42.23
2018-05-21T22:43:53.013Z,41.63
2018-05-21T22:46:20.597Z,42.20
2018-05-21T22:48:48.122Z,41.98
2018-05-21T22:51:15.633Z,42.95
2018-05-21T22:53:43.188Z,43.62
2018-05-21T22:56:10.765Z,43.81
2018-05-21T22:58:38.314Z,43.22
2018-05-21T23:01:06.399Z,43.75
2018-05-21T23:03:33.923Z,42.95
2018-05-21T23:06:01.454Z,43.27
2018-05-21T23:08:29.017Z,43.55
2018-05-21T23:10:56.546Z,44.56
2018-05-21T23:13:24.104Z,44.50
2018-05-21T23:15:51.656Z,45.31
2018-05-21T23:18:19.179Z,45.10
2018-05-21T23:20:46.731Z,45.04
2018-05-21T23:23:14.255Z,45.00
2018-05-21T23:25:42.233Z,43.92
2018-05-21T23:28:09.839Z,43.87
2018-05-21T23:30:37.366Z,43.92
2018-05-21T23:33:04.926Z,44.28
2018-05-21T23:35:32.514Z,44.02
2018-05-21T23:38:00.066Z,43.91
2018-05-21T23:40:27.595Z,44.16
2018-05-21T23:42:55.142Z,44.02
2018-05-21T23:45:22.662Z,44.28
2018-05-21T23:47:50.218Z,44.70
2018-05-21T23:50:17.743Z,45.59
2018-05-21T23:52:45.290Z,44.58
2018-05-21T23:55:12.815Z,45.19
2018-05-21T23:57:40.369Z,44.75
